Wind From: 11-12-2017 06:00 Until: 12-12-2017 06:00 warning for: Wind Level: Orange info button

Power and phone distribution networks may be disrupted for relatively long periods., Roofs and chimneys can be damaged. , Tree branches may break. , Vehicles can be deported. , Traffic may be disrupted, particularly on secondary roads in forest areas. Limit your trips. , Limit your speed in highway driving, especially if you drive a vehicle or hitch sensitive to wind. , Do not go for walks in forests or along the coast., In town, be vigilant against possible falling objects., Do not work on roofs and do not touch any electrical line fallen on the ground., Store or secure sensitive objects to wind or likely to be damaged., Always install power generators outside buildings. 


Meteo18 Weather Cam more information Meteo18 Weather Cam


Thunder radar more information blitzortung!


Rain radar more information rain snow radar


Visit our other weather sites:

Template documentation
and downloads

And another site



Weather Underground History page Text

Daily Summary for May 17, 2016 Units:  Metric    English   Both
« Previous Day
Next Day »
Daily Weekly Monthly Yearly Custom
  High: Low: Average:
Temperature: 20.2 °C 16.2 °C 18.2 °C
Dew Point: 11.0 °C 8.3 °C 9.8 °C
Humidity: 70 % 49 % 59 %
Wind Speed: 6.4 km/h 0.0 km/h 0.4 km/h
Wind Gust: 8.0 km/h - -
Wind:- - SW
Pressure: 1018.8 hPa 1017.2 hPa -
Precipitation: 0.0 mm    
Historical Graphs
 
 
Tabular Data for May 17, 2016
Time Temperature Dew Point Pressure Wind Wind Speed Wind Gust Humidity Rainfall Rate (Hourly)
15:12 20.2 °C 10.6 °C 1018.8 hPa SSW 1.6 km/h 6.4 km/h 54 % 0.0 mm
15:17 19.7 °C 10.1 °C 1018.8 hPa Calm   6.4 km/h 54 % 0.0 mm
15:22 19.5 °C 9.1 °C 1018.8 hPa WSW 1.6 km/h 4.8 km/h 51 % 0.0 mm
15:32 19.7 °C 9.3 °C 1018.8 hPa SW 6.4 km/h 6.4 km/h 51 % 0.0 mm
15:37 19.6 °C 9.8 °C 1018.8 hPa SW 1.6 km/h 8.0 km/h 53 % 0.0 mm
15:42 19.6 °C 9.5 °C 1018.8 hPa Calm   8.0 km/h 52 % 0.0 mm
15:47 19.8 °C 9.1 °C 1018.8 hPa Calm   8.0 km/h 50 % 0.0 mm
15:52 19.5 °C 8.8 °C 1018.8 hPa Calm   4.8 km/h 50 % 0.0 mm
15:57 19.6 °C 9.2 °C 1018.8 hPa SSE 4.8 km/h 4.8 km/h 51 % 0.0 mm
16:02 19.5 °C 9.1 °C 1018.8 hPa Calm   4.8 km/h 51 % 0.0 mm
16:07 19.3 °C 8.3 °C 1018.8 hPa SW 1.6 km/h 4.8 km/h 49 % 0.0 mm
16:12 19.1 °C 8.7 °C 1018.5 hPa Calm   4.8 km/h 51 % 0.0 mm
16:17 19.0 °C 9.2 °C 1018.5 hPa Calm   4.8 km/h 53 % 0.0 mm
16:22 18.9 °C 9.4 °C 1018.5 hPa Calm   3.2 km/h 54 % 0.0 mm
16:27 19.1 °C 9.0 °C 1018.5 hPa Calm   3.2 km/h 52 % 0.0 mm
16:32 19.2 °C 9.4 °C 1018.5 hPa Calm   3.2 km/h 53 % 0.0 mm
16:37 19.0 °C 9.5 °C 1018.5 hPa Calm     54 % 0.0 mm
16:42 18.7 °C 8.4 °C 1018.2 hPa Calm     51 % 0.0 mm
16:47 18.7 °C 10.0 °C 1018.2 hPa Calm     57 % 0.0 mm
16:52 18.6 °C 10.4 °C 1018.2 hPa Calm     59 % 0.0 mm
16:57 18.2 °C 9.8 °C 1018.2 hPa Calm     58 % 0.0 mm
17:02 18.1 °C 10.2 °C 1018.2 hPa SSW 1.6 km/h 3.2 km/h 60 % 0.0 mm
17:07 18.1 °C 9.2 °C 1018.2 hPa Calm   3.2 km/h 56 % 0.0 mm
17:12 18.2 °C 10.1 °C 1018.2 hPa Calm   3.2 km/h 59 % 0.0 mm
17:17 18.0 °C 9.9 °C 1018.2 hPa Calm   3.2 km/h 59 % 0.0 mm
17:22 18.0 °C 9.6 °C 1017.8 hPa Calm   3.2 km/h 58 % 0.0 mm
17:32 18.1 °C 10.2 °C 1017.8 hPa Calm     60 % 0.0 mm
17:42 18.2 °C 9.5 °C 1017.8 hPa Calm     57 % 0.0 mm
17:47 18.3 °C 10.1 °C 1017.8 hPa Calm     59 % 0.0 mm
17:57 18.3 °C 10.4 °C 1017.8 hPa Calm     60 % 0.0 mm
18:02 18.3 °C 10.1 °C 1017.8 hPa Calm   3.2 km/h 59 % 0.0 mm
18:07 18.3 °C 9.9 °C 1017.8 hPa Calm   3.2 km/h 58 % 0.0 mm
18:12 18.2 °C 10.1 °C 1017.8 hPa Calm   3.2 km/h 59 % 0.0 mm
18:17 18.2 °C 9.5 °C 1017.8 hPa Calm   1.6 km/h 57 % 0.0 mm
18:22 18.3 °C 10.4 °C 1017.5 hPa Calm   1.6 km/h 60 % 0.0 mm
18:27 18.2 °C 10.3 °C 1017.5 hPa Calm     60 % 0.0 mm
18:32 17.9 °C 9.8 °C 1017.5 hPa SW 1.6 km/h   59 % 0.0 mm
18:37 17.9 °C 10.5 °C 1017.5 hPa Calm   3.2 km/h 62 % 0.0 mm
18:42 17.9 °C 9.8 °C 1017.5 hPa Calm   3.2 km/h 59 % 0.0 mm
18:52 17.6 °C 10.9 °C 1017.5 hPa Calm     65 % 0.0 mm
18:57 17.4 °C 10.0 °C 1017.5 hPa Calm     62 % 0.0 mm
19:02 17.3 °C 9.9 °C 1017.5 hPa Calm     62 % 0.0 mm
19:07 17.3 °C 9.7 °C 1017.5 hPa Calm     61 % 0.0 mm
19:12 17.2 °C 9.1 °C 1017.5 hPa Calm     59 % 0.0 mm
19:22 17.0 °C 9.9 °C 1017.5 hPa Calm   4.8 km/h 63 % 0.0 mm
19:27 16.9 °C 9.6 °C 1017.2 hPa Calm   4.8 km/h 62 % 0.0 mm
19:32 16.8 °C 10.2 °C 1017.2 hPa Calm   1.6 km/h 65 % 0.0 mm
19:37 16.8 °C 10.2 °C 1017.5 hPa Calm   1.6 km/h 65 % 0.0 mm
19:42 16.7 °C 9.9 °C 1017.2 hPa Calm   1.6 km/h 64 % 0.0 mm
19:47 16.7 °C 10.8 °C 1017.2 hPa Calm   1.6 km/h 68 % 0.0 mm
19:52 16.6 °C 10.9 °C 1017.2 hPa Calm     69 % 0.0 mm
19:57 16.5 °C 11.0 °C 1017.2 hPa Calm     70 % 0.0 mm
20:02 16.4 °C 10.9 °C 1017.2 hPa Calm     70 % 0.0 mm
20:07 16.3 °C 10.8 °C 1017.2 hPa Calm     70 % 0.0 mm
20:12 16.2 °C 10.5 °C 1017.2 hPa Calm     69 % 0.0 mm
20:17 16.2 °C 10.7 °C 1017.2 hPa Calm     70 % 0.0 mm
Meteo18
Compliments of Weather Underground - 4 mb

Script developed by  Jim McMurry - jmcmurry@mwt.net Adapted for the template by  Wim van der Kuil - Leuven-Template.eu

You find our weather info also at:

European Weather Network

Weather Underground

Equipment we use:

Weather-station
Davis Vue

Weather-program
Meteohub

Weather-server
Raspberry PI 2 B+

Provider
1 and 1

Davis Vue

Meteohub

Raspberry PI 2 B+

1 and 1